Knoxville, Tennessee
Current Conditions -  °F | °C
As of 7:53 AM on Tuesday 21 Oct 2014 (Local Time) from KTYS Reporting Station
Scattered Clouds Scattered Clouds  
Wind Chill: 50°   Ceiling: Unl
Heat Index: 50°   Visibility: 10mi
Dew Point: 47°   Wind: 6mph
Humidity: 89%   Direction: 270°W
Pressure: 30"   Gusts: NA
Location:  35.96°N, 83.92°W
Report Text: KTYS 211153Z 27005KT 10SM SCT080 10/08 A3000 RMK AO2 SLP155 T01000083 10128 20100 53005
Loading
Personal Weather Stations






























Interactive Weather Map New forecast layout! Learn more

10-Day Weather Forecast

Advertisements
Track Severe Weather on mobile